WetterOnline ( http://www.wetteronline.de )

Wetter aktuell Kappeln

Aktuelles Wetter: Schönhagen (Ostseebad) (02m)

6-stündlich | Neueste Meldungen
Ortszeit Temperatur Wetter
Do, 19.07. 8:00 16.3° C wolkenlos
Do, 19.07. 2:00 14.6° C wolkenlos
Mi, 18.07. 20:00 22.2° C wolkenlos
Mi, 18.07. 14:00 23.0° C bewölkt
Mi, 18.07. 8:00 16.6° C wolkig
Mi, 18.07. 2:00 17.1° C wolkig
Di, 17.07. 20:00 27.0° C bewölkt
Di, 17.07. 14:00 23.4° C fast wolkenlos
Ortszeit Temperatur Wetter
Do, 19.07. 13:10 23.4° C wolkenlos
Do, 19.07. 13:00 22.8° C leicht bewölkt
Do, 19.07. 12:50 22.8° C leicht bewölkt
Do, 19.07. 12:40 21.2° C wolkig
Do, 19.07. 12:30 22.4° C wolkig
Do, 19.07. 12:20 22.4° C wolkig
Do, 19.07. 12:00 20.4° C bewölkt
Do, 19.07. 11:30 20.1° C wolkig
Do, 19.07. 11:00 20.4° C wolkig
Do, 19.07. 10:30 20.1° C leicht bewölkt
Do, 19.07. 10:00 19.4° C leicht bewölkt
Ortszeit Relative Feuchte Sichtweite
Do, 19.07. 8:00 89% 11 km
Do, 19.07. 2:00 82% 24 km
Mi, 18.07. 20:00 56% 15 km
Mi, 18.07. 14:00 56% 12 km
Mi, 18.07. 8:00 93% 6 km
Mi, 18.07. 2:00 93% 4.1 km
Di, 17.07. 20:00 38% 20 km
Di, 17.07. 14:00 68% 13 km
Ortszeit Relative Feuchte Sichtweite
Do, 19.07. 13:10 41% -
Do, 19.07. 13:00 42% 23 km
Do, 19.07. 12:50 42% -
Do, 19.07. 12:40 47% -
Do, 19.07. 12:30 46% 24 km
Do, 19.07. 12:20 46% -
Do, 19.07. 12:00 55% 25 km
Do, 19.07. 11:30 58% 24 km
Do, 19.07. 11:00 63% 20 km
Do, 19.07. 10:30 64% 11 km
Do, 19.07. 10:00 67% 12 km
Ortszeit Niederschlagsmenge Niederschlagsart
Do, 19.07. 8:00 0.0 l/m2 in 12 Std. -
Do, 19.07. 2:00 0.0 l/m2 in 6 Std. -
Mi, 18.07. 20:00 0.0 l/m2 in 12 Std. -
Mi, 18.07. 14:00 0.0 l/m2 in 6 Std. -
Mi, 18.07. 8:00 0.0 l/m2 in 12 Std. -
Mi, 18.07. 2:00 0.0 l/m2 in 6 Std. -
Di, 17.07. 20:00 0.0 l/m2 in 12 Std. -
Di, 17.07. 14:00 0.0 l/m2 in 6 Std. -
Ortszeit Niederschlagsmenge Niederschlagsart
Do, 19.07. 13:10 keine Meldung -
Do, 19.07. 13:00 0.0 l/m2 in 1 Std. -
Do, 19.07. 12:50 keine Meldung -
Do, 19.07. 12:40 keine Meldung -
Do, 19.07. 12:30 0.0 l/m2 in 1 Std. -
Do, 19.07. 12:20 keine Meldung -
Do, 19.07. 12:00 0.0 l/m2 in 1 Std. -
Do, 19.07. 11:30 0.0 l/m2 in 1 Std. -
Do, 19.07. 11:00 0.0 l/m2 in 1 Std. -
Do, 19.07. 10:30 0.0 l/m2 in 1 Std. -
Do, 19.07. 10:00 0.0 l/m2 in 1 Std. -
Ortszeit Stärke Spitze Richtung
km/h Bft. km/h Grad Sektor
Do, 19.07. 8:00 13 3 19 320° NW
Do, 19.07. 2:00 15 3 35 300° NW
Mi, 18.07. 20:00 19 3 37 300° NW
Mi, 18.07. 14:00 22 4 40 300° NW
Mi, 18.07. 8:00 11 2 32 270° W
Mi, 18.07. 2:00 17 3 30 270° W
Di, 17.07. 20:00 4 1 18 330° NW
Di, 17.07. 14:00 13 3 19 100° O
Ortszeit Stärke Spitze Richtung
km/h Bft. km/h Grad Sektor
Do, 19.07. 13:10 25 4 - 270° W
Do, 19.07. 13:00 22 4 36 290° W
Do, 19.07. 12:50 22 4 - 290° W
Do, 19.07. 12:40 20 4 - 290° W
Do, 19.07. 12:30 20 4 31 260° W
Do, 19.07. 12:20 20 4 - 260° W
Do, 19.07. 12:00 20 4 30 310° NW
Do, 19.07. 11:30 18 3 25 300° NW
Do, 19.07. 11:00 14 3 29 300° NW
Do, 19.07. 10:30 18 3 29 320° NW
Do, 19.07. 10:00 17 3 28 320° NW
Ortszeit Untergrenze Bedeckung Gattung
total tief tief mittel hoch
Do, 19.07. 8:00 - 0/8 0/8 - - -
Do, 19.07. 2:00 - 0/8 0/8 - - -
Mi, 18.07. 20:00 - 0/8 0/8 - - -
Mi, 18.07. 14:00 1170 m 8/8 6/8 - - -
Mi, 18.07. 8:00 510 m 5/8 5/8 - - -
Mi, 18.07. 2:00 9000 m 8/8 0/8 - - -
Di, 17.07. 20:00 3000 m 7/8 7/8 - - -
Di, 17.07. 14:00 9000 m 1/8 0/8 - - -
Ortszeit Bedeckungsgrad in Achtel und Wolkenuntergrenze
Do, 19.07. 13:10 keine Wolken
Do, 19.07. 13:00 2(1470m) 3(1500m)
Do, 19.07. 12:50 2(1470m) 3(1500m)
Do, 19.07. 12:40 3(1470m) 6(1500m)
Do, 19.07. 12:30 2(1440m) 6(1800m)
Do, 19.07. 12:20 2(1440m) 6(1800m)
Do, 19.07. 12:00 7(1500m) 7(1500m)
Do, 19.07. 11:30 3(1050m) 6(1500m) 5(1500m)
Do, 19.07. 11:00 1(840m) 5(1380m) 6(1500m)
Do, 19.07. 10:30 4(840m) 3(1170m) 4(1500m)
Do, 19.07. 10:00 2(720m) 9 9
Ortszeit Luftdruck NN (hPa) Tendenz (hPa in 3 Std.)
Do, 19.07. 8:00 1019 + 0,3
Do, 19.07. 2:00 1019 + 0,8
Mi, 18.07. 20:00 1017 + 0,5
Mi, 18.07. 14:00 1016 + 0,4
Mi, 18.07. 8:00 1015 + 0,9
Mi, 18.07. 2:00 1014 + 0,5
Di, 17.07. 20:00 1012 - 0,1
Di, 17.07. 14:00 1013 - 0,2
Ortszeit Luftdruck NN (hPa) Tendenz (hPa in 3 Std.)
Do, 19.07. 13:10 1018 keine Meldung
Do, 19.07. 13:00 1018 - 0,8
Do, 19.07. 12:50 1018 keine Meldung
Do, 19.07. 12:40 1018 keine Meldung
Do, 19.07. 12:30 1018 - 0,7
Do, 19.07. 12:20 1018 keine Meldung
Do, 19.07. 12:00 1019 - 0,5
Do, 19.07. 11:30 1019 - 0,3
Do, 19.07. 11:00 1019 - 0,2
Do, 19.07. 10:30 1019 0,0
Do, 19.07. 10:00 1019 + 0,3
Ortszeit Schneehöhe (cm)
Do, 19.07. 8:00 -
Do, 19.07. 2:00 -
Mi, 18.07. 20:00 -
Mi, 18.07. 14:00 -
Mi, 18.07. 8:00 -
Mi, 18.07. 2:00 -
Di, 17.07. 20:00 -
Di, 17.07. 14:00 -
Ortszeit Schneehöhe (cm)
Do, 19.07. 13:10 -
Do, 19.07. 13:00 -
Do, 19.07. 12:50 -
Do, 19.07. 12:40 -
Do, 19.07. 12:30 -
Do, 19.07. 12:20 -
Do, 19.07. 12:00 -
Do, 19.07. 11:30 -
Do, 19.07. 11:00 -
Do, 19.07. 10:30 -
Do, 19.07. 10:00 -
Link zu dieser Seite / Seite empfehlen

Das Wetter in ...